createdAt,value
2023-04-10T00:03:43.333Z,22.13
2023-04-10T00:08:40.944Z,22.75
2023-04-10T00:13:34.275Z,21.48
2023-04-10T00:18:27.440Z,21.13
2023-04-10T00:23:20.614Z,21.05
2023-04-10T00:28:16.642Z,21.42
2023-04-10T00:33:09.889Z,20.98
2023-04-10T00:38:03.208Z,21.38
2023-04-10T00:42:56.530Z,20.42
2023-04-10T00:47:51.304Z,22.10
2023-04-10T00:52:44.644Z,21.27
2023-04-10T00:57:37.930Z,22.40
2023-04-10T01:02:32.466Z,20.63
2023-04-10T01:07:38.456Z,19.65
2023-04-10T01:12:48.652Z,21.63
2023-04-10T01:17:47.619Z,22.20
2023-04-10T01:23:11.364Z,22.52
2023-04-10T01:28:26.324Z,21.48
2023-04-10T01:33:24.097Z,21.55
2023-04-10T01:38:19.248Z,21.40
2023-04-10T01:43:14.513Z,22.08
2023-04-10T01:48:13.778Z,21.98
2023-04-10T01:53:09.333Z,22.50
2023-04-10T01:58:02.793Z,21.67
2023-04-10T02:02:58.680Z,22.63
2023-04-10T02:08:03.590Z,23.20
2023-04-10T02:13:02.476Z,23.25
2023-04-10T02:17:57.776Z,24.08
2023-04-10T02:22:53.389Z,25.02
2023-04-10T02:27:46.642Z,25.80
2023-04-10T02:32:42.124Z,30.75
2023-04-10T02:37:36.313Z,41.67
2023-04-10T02:42:30.785Z,27.38
2023-04-10T02:47:27.335Z,25.70
2023-04-10T02:52:22.065Z,24.40
2023-04-10T02:57:15.704Z,25.95
2023-04-10T03:02:10.561Z,24.95
2023-04-10T03:07:06.319Z,24.98
2023-04-10T03:12:05.563Z,24.23
2023-04-10T03:16:58.937Z,26.23
2023-04-10T03:21:52.521Z,26.05
2023-04-10T03:26:45.921Z,25.92
2023-04-10T03:31:40.826Z,24.48
2023-04-10T03:36:35.293Z,25.55
2023-04-10T03:41:28.523Z,27.00
2023-04-10T03:46:22.905Z,26.02
2023-04-10T03:51:18.943Z,50.13
2023-04-10T03:56:12.435Z,56.25
2023-04-10T04:01:07.001Z,35.83
2023-04-10T04:06:11.716Z,27.70
2023-04-10T04:11:21.653Z,26.90
2023-04-10T04:16:28.345Z,30.83
2023-04-10T04:21:35.982Z,31.38
2023-04-10T04:26:50.912Z,30.10
2023-04-10T04:32:13.722Z,29.88
2023-04-10T04:37:25.818Z,29.75
2023-04-10T04:42:44.745Z,28.25
2023-04-10T04:47:49.430Z,27.10
2023-04-10T04:52:55.732Z,26.90
2023-04-10T04:58:09.173Z,28.85
2023-04-10T05:03:14.320Z,27.23
2023-04-10T05:08:39.724Z,27.40
2023-04-10T05:19:14.617Z,27.92
2023-04-10T05:24:21.719Z,27.77
2023-04-10T05:29:36.318Z,28.20
2023-04-10T05:34:49.779Z,27.88
2023-04-10T05:39:58.061Z,27.67
2023-04-10T05:45:10.972Z,26.95
2023-04-10T05:50:13.279Z,27.58
2023-04-10T05:55:38.898Z,27.80
2023-04-10T06:01:02.790Z,26.80
2023-04-10T06:06:16.569Z,26.33
2023-04-10T06:11:09.896Z,25.30
2023-04-10T06:16:05.617Z,25.05
2023-04-10T06:21:02.114Z,25.60
2023-04-10T06:25:58.569Z,24.48
2023-04-10T06:30:52.335Z,24.60
2023-04-10T06:35:47.503Z,25.05
2023-04-10T06:40:42.139Z,25.42
2023-04-10T06:45:35.467Z,26.38
2023-04-10T06:50:33.297Z,24.25
2023-04-10T06:55:28.187Z,25.48
2023-04-10T07:00:22.232Z,25.92
2023-04-10T07:05:16.083Z,27.60
2023-04-10T07:10:10.417Z,24.88
2023-04-10T07:15:05.628Z,25.10
2023-04-10T07:20:02.071Z,26.42
2023-04-10T07:24:55.220Z,24.75
2023-04-10T07:29:48.437Z,24.48
2023-04-10T07:34:46.111Z,24.45
2023-04-10T07:39:39.678Z,24.35
2023-04-10T07:44:32.967Z,23.50
2023-04-10T07:49:26.488Z,22.50
2023-04-10T07:54:21.385Z,22.65
2023-04-10T07:59:14.638Z,21.85
2023-04-10T08:04:09.601Z,22.38
2023-04-10T08:09:02.963Z,22.85
2023-04-10T08:13:58.712Z,22.17
2023-04-10T08:18:52.726Z,21.25
2023-04-10T08:23:47.202Z,22.52
2023-04-10T08:28:40.422Z,20.92
2023-04-10T08:33:35.105Z,21.50
2023-04-10T08:38:31.035Z,20.75
2023-04-10T08:43:24.248Z,21.20
2023-04-10T08:48:19.849Z,21.25
2023-04-10T08:53:16.651Z,20.83
2023-04-10T08:58:11.473Z,19.95
2023-04-10T09:03:08.560Z,20.65
2023-04-10T09:08:02.036Z,19.65
2023-04-10T09:12:59.679Z,20.00
2023-04-10T09:17:58.931Z,18.95
2023-04-10T09:22:52.293Z,18.73
2023-04-10T09:27:45.465Z,17.67
2023-04-10T09:32:42.422Z,17.70
2023-04-10T09:37:36.454Z,16.55
2023-04-10T09:42:34.748Z,16.92
2023-04-10T09:47:28.460Z,15.85
2023-04-10T09:52:26.459Z,17.55
2023-04-10T09:57:21.433Z,16.70
2023-04-10T10:02:17.068Z,15.70
2023-04-10T10:07:10.871Z,15.38
2023-04-10T10:12:08.670Z,13.90
2023-04-10T10:17:10.496Z,13.25
2023-04-10T10:22:04.416Z,13.70
2023-04-10T10:27:04.539Z,13.93
2023-04-10T10:32:07.914Z,11.90
2023-04-10T10:37:01.923Z,13.23
2023-04-10T10:42:03.631Z,13.02
2023-04-10T10:47:09.026Z,11.23
2023-04-10T10:52:05.387Z,11.57
2023-04-10T10:57:01.844Z,10.32
2023-04-10T11:02:18.283Z,10.65
2023-04-10T11:07:11.792Z,10.32
2023-04-10T11:12:07.869Z,9.73
2023-04-10T11:17:01.049Z,9.73
2023-04-10T11:22:07.638Z,10.55
2023-04-10T11:27:01.742Z,10.23
2023-04-10T11:31:58.252Z,10.35
2023-04-10T11:36:53.488Z,10.48
2023-04-10T11:41:49.721Z,9.65
2023-04-10T11:46:44.406Z,10.68
2023-04-10T11:51:38.152Z,10.30
2023-04-10T11:56:31.305Z,9.90
2023-04-10T12:01:34.896Z,9.52
2023-04-10T12:06:28.794Z,9.48
2023-04-10T12:11:23.655Z,9.38
2023-04-10T12:16:16.886Z,8.82
2023-04-10T12:21:11.834Z,7.88
2023-04-10T12:26:13.345Z,9.13
2023-04-10T12:31:07.496Z,8.30
2023-04-10T12:36:00.732Z,8.77
2023-04-10T12:41:02.240Z,8.65
2023-04-10T12:45:57.063Z,8.25
2023-04-10T12:50:54.222Z,9.10
2023-04-10T12:56:03.544Z,7.25
2023-04-10T13:00:57.531Z,8.85
2023-04-10T13:05:51.036Z,8.35
2023-04-10T13:10:44.249Z,9.32
2023-04-10T13:15:39.107Z,8.70
2023-04-10T13:20:33.117Z,9.15
2023-04-10T13:25:27.832Z,8.50
2023-04-10T13:30:21.057Z,8.30
2023-04-10T13:35:18.783Z,8.90
2023-04-10T13:40:12.449Z,7.47
2023-04-10T13:45:07.471Z,7.95
2023-04-10T13:50:00.660Z,7.50
2023-04-10T13:54:55.165Z,8.75
2023-04-10T13:59:48.385Z,7.05
2023-04-10T14:04:42.720Z,8.98
2023-04-10T14:09:36.057Z,10.02
2023-04-10T14:14:30.850Z,8.65
2023-04-10T14:19:24.100Z,8.77
2023-04-10T14:24:17.359Z,8.70
2023-04-10T14:29:10.980Z,8.35
2023-04-10T14:34:05.515Z,8.70
2023-04-10T14:38:58.771Z,8.18
2023-04-10T14:43:55.165Z,8.85
2023-04-10T14:48:48.963Z,8.60
2023-04-10T14:53:45.836Z,8.40
2023-04-10T14:58:38.937Z,8.90
2023-04-10T15:03:32.124Z,8.80
2023-04-10T15:08:25.431Z,8.02
2023-04-10T15:13:20.077Z,8.65
2023-04-10T15:18:13.485Z,8.80
2023-04-10T15:23:06.660Z,8.75
2023-04-10T15:28:01.376Z,8.65
2023-04-10T15:32:56.650Z,9.15
2023-04-10T15:37:49.877Z,10.52
2023-04-10T15:42:44.988Z,11.45
2023-04-10T15:47:38.224Z,11.45
2023-04-10T15:52:33.963Z,11.35
2023-04-10T15:57:27.090Z,9.93
2023-04-10T16:02:20.565Z,10.05
2023-04-10T16:07:13.845Z,10.32
2023-04-10T16:12:08.553Z,11.05
2023-04-10T16:17:02.509Z,9.27
2023-04-10T16:21:57.243Z,9.98
2023-04-10T16:26:50.554Z,11.02
2023-04-10T16:31:45.202Z,10.38
2023-04-10T16:36:38.439Z,10.30
2023-04-10T16:41:31.884Z,9.98
2023-04-10T16:46:27.407Z,10.48
2023-04-10T16:51:22.276Z,10.27
2023-04-10T16:56:16.073Z,11.40
2023-04-10T17:01:17.992Z,10.73
2023-04-10T17:06:11.666Z,12.15
2023-04-10T17:11:18.800Z,11.48
2023-04-10T17:16:15.366Z,12.50
2023-04-10T17:21:12.666Z,12.77
2023-04-10T17:26:08.378Z,12.68
2023-04-10T17:31:03.153Z,14.10
2023-04-10T17:35:59.207Z,16.98
2023-04-10T17:40:52.577Z,14.95
2023-04-10T17:45:49.664Z,14.13
2023-04-10T17:50:44.986Z,19.80
2023-04-10T17:55:40.040Z,14.45
2023-04-10T18:00:35.039Z,14.93
2023-04-10T18:05:30.585Z,16.70
2023-04-10T18:10:25.585Z,16.58
2023-04-10T18:15:18.970Z,16.55
2023-04-10T18:20:12.713Z,16.60
2023-04-10T18:25:11.652Z,16.65
2023-04-10T18:30:06.711Z,18.42
2023-04-10T18:35:03.695Z,23.20
2023-04-10T18:40:00.961Z,60.03
2023-04-10T18:45:01.008Z,41.38
2023-04-10T18:49:54.405Z,23.60
2023-04-10T18:54:47.746Z,22.73
2023-04-10T18:59:43.446Z,22.35
2023-04-10T19:04:38.265Z,25.60
2023-04-10T19:09:31.617Z,20.75
2023-04-10T19:14:25.048Z,19.63
2023-04-10T19:19:20.859Z,19.45
2023-04-10T19:24:16.651Z,19.63
2023-04-10T19:29:11.222Z,17.58
2023-04-10T19:34:09.304Z,17.00
2023-04-10T19:39:02.576Z,17.88
2023-04-10T19:43:58.544Z,17.10
2023-04-10T19:48:54.866Z,16.40
2023-04-10T19:53:51.588Z,18.60
2023-04-10T19:58:46.854Z,16.83
2023-04-10T20:03:46.077Z,18.20
2023-04-10T20:08:44.629Z,16.02
2023-04-10T20:13:42.690Z,16.52
2023-04-10T20:18:39.846Z,14.57
2023-04-10T20:23:40.217Z,14.23
2023-04-10T20:33:26.802Z,16.25
2023-04-10T20:38:20.400Z,19.52
2023-04-10T20:43:15.312Z,21.08
2023-04-10T20:48:10.044Z,19.58
2023-04-10T20:53:03.670Z,20.08
2023-04-10T20:57:58.213Z,19.50
2023-04-10T21:02:53.374Z,19.13
2023-04-10T21:07:46.988Z,19.52
2023-04-10T21:12:43.448Z,20.75
2023-04-10T21:17:37.052Z,24.02
2023-04-10T21:22:31.721Z,12.32
2023-04-10T21:27:25.415Z,18.77
2023-04-10T21:32:18.786Z,15.95
2023-04-10T21:37:12.072Z,17.85
2023-04-10T21:42:09.338Z,12.93
2023-04-10T21:47:02.678Z,10.98
2023-04-10T21:51:57.734Z,11.23
2023-04-10T21:56:54.125Z,11.18
2023-04-10T22:01:48.980Z,12.38
2023-04-10T22:06:45.548Z,12.70
2023-04-10T22:11:41.904Z,11.67
2023-04-10T22:16:35.300Z,11.25
2023-04-10T22:21:31.796Z,11.07
2023-04-10T22:26:25.126Z,11.93
2023-04-10T22:31:20.346Z,11.70
2023-04-10T22:36:14.261Z,11.65
2023-04-10T22:41:10.970Z,10.77
2023-04-10T22:46:04.224Z,10.55
2023-04-10T22:50:57.465Z,11.13
2023-04-10T22:55:50.635Z,10.63
2023-04-10T23:00:45.261Z,10.05
2023-04-10T23:05:38.512Z,10.32
2023-04-10T23:10:33.811Z,11.55
2023-04-10T23:15:27.179Z,13.02
2023-04-10T23:20:22.159Z,11.82
2023-04-10T23:25:16.222Z,12.35
2023-04-10T23:30:10.058Z,13.25
2023-04-10T23:35:03.270Z,11.85
2023-04-10T23:39:57.870Z,12.88
2023-04-10T23:44:51.164Z,13.30
2023-04-10T23:49:44.414Z,12.70
2023-04-10T23:54:37.598Z,13.32
2023-04-10T23:59:32.144Z,13.88
